sensor_id;sensor_type;location;lat;lon;timestamp;temperature;humidity
21518;DHT22;61765;45.794;24.150;2022-10-01T00:08:15;20.40;90.80
21518;DHT22;61765;45.794;24.150;2022-10-01T00:16:23;20.50;90.60
21518;DHT22;61765;45.794;24.150;2022-10-01T00:24:31;20.40;90.40
21518;DHT22;61765;45.794;24.150;2022-10-01T00:32:37;20.00;91.00
21518;DHT22;61765;45.794;24.150;2022-10-01T00:40:45;20.30;90.80
21518;DHT22;61765;45.794;24.150;2022-10-01T00:48:54;20.20;90.60
21518;DHT22;61765;45.794;24.150;2022-10-01T00:57:05;20.20;90.80
21518;DHT22;61765;45.794;24.150;2022-10-01T01:05:11;20.10;90.70
21518;DHT22;61765;45.794;24.150;2022-10-01T01:13:23;20.10;90.90
21518;DHT22;61765;45.794;24.150;2022-10-01T01:21:31;20.10;90.90
21518;DHT22;61765;45.794;24.150;2022-10-01T01:29:47;19.70;91.40
21518;DHT22;61765;45.794;24.150;2022-10-01T01:37:57;19.90;91.50
21518;DHT22;61765;45.794;24.150;2022-10-01T01:46:09;19.50;91.50
21518;DHT22;61765;45.794;24.150;2022-10-01T01:54:15;19.70;91.70
21518;DHT22;61765;45.794;24.150;2022-10-01T02:02:26;19.60;91.90
21518;DHT22;61765;45.794;24.150;2022-10-01T02:10:49;19.20;92.30
21518;DHT22;61765;45.794;24.150;2022-10-01T02:19:04;19.40;92.00
21518;DHT22;61765;45.794;24.150;2022-10-01T02:27:12;19.50;91.70
21518;DHT22;61765;45.794;24.150;2022-10-01T02:35:22;19.80;91.40
21518;DHT22;61765;45.794;24.150;2022-10-01T02:43:31;19.70;91.20
21518;DHT22;61765;45.794;24.150;2022-10-01T02:51:53;19.80;91.00
21518;DHT22;61765;45.794;24.150;2022-10-01T03:00:03;19.70;91.30
21518;DHT22;61765;45.794;24.150;2022-10-01T03:08:11;19.90;90.90
21518;DHT22;61765;45.794;24.150;2022-10-01T03:16:16;18.90;91.00
21518;DHT22;61765;45.794;24.150;2022-10-01T03:24:24;19.30;91.10
21518;DHT22;61765;45.794;24.150;2022-10-01T03:32:30;19.20;90.80
21518;DHT22;61765;45.794;24.150;2022-10-01T03:40:38;18.90;91.00
21518;DHT22;61765;45.794;24.150;2022-10-01T03:48:44;19.20;90.70
21518;DHT22;61765;45.794;24.150;2022-10-01T03:56:52;19.40;90.70
21518;DHT22;61765;45.794;24.150;2022-10-01T04:04:57;19.50;90.40
21518;DHT22;61765;45.794;24.150;2022-10-01T04:13:05;19.40;90.40
21518;DHT22;61765;45.794;24.150;2022-10-01T04:21:11;19.10;90.80
21518;DHT22;61765;45.794;24.150;2022-10-01T04:29:19;19.30;90.80
21518;DHT22;61765;45.794;24.150;2022-10-01T04:37:24;19.30;90.70
21518;DHT22;61765;45.794;24.150;2022-10-01T04:45:33;19.10;90.30
21518;DHT22;61765;45.794;24.150;2022-10-01T04:53:38;18.90;90.60
21518;DHT22;61765;45.794;24.150;2022-10-01T05:01:46;19.00;90.80
21518;DHT22;61765;45.794;24.150;2022-10-01T05:09:51;19.10;90.80
21518;DHT22;61765;45.794;24.150;2022-10-01T05:17:59;19.30;90.60
21518;DHT22;61765;45.794;24.150;2022-10-01T05:26:05;19.40;90.60
21518;DHT22;61765;45.794;24.150;2022-10-01T05:34:13;19.60;90.70
21518;DHT22;61765;45.794;24.150;2022-10-01T05:42:18;19.90;90.40
21518;DHT22;61765;45.794;24.150;2022-10-01T05:50:26;20.30;90.20
21518;DHT22;61765;45.794;24.150;2022-10-01T05:58:33;20.70;90.00
21518;DHT22;61765;45.794;24.150;2022-10-01T06:06:41;21.00;88.60
21518;DHT22;61765;45.794;24.150;2022-10-01T06:14:46;21.40;88.60
21518;DHT22;61765;45.794;24.150;2022-10-01T06:22:55;21.90;88.30
21518;DHT22;61765;45.794;24.150;2022-10-01T06:31:01;22.50;87.40
21518;DHT22;61765;45.794;24.150;2022-10-01T06:39:09;23.10;86.70
21518;DHT22;61765;45.794;24.150;2022-10-01T06:47:15;23.20;85.60
21518;DHT22;61765;45.794;24.150;2022-10-01T06:55:25;23.50;85.60
21518;DHT22;61765;45.794;24.150;2022-10-01T07:03:30;23.90;84.30
21518;DHT22;61765;45.794;24.150;2022-10-01T07:11:38;24.30;84.50
21518;DHT22;61765;45.794;24.150;2022-10-01T07:19:44;24.70;82.90
21518;DHT22;61765;45.794;24.150;2022-10-01T07:27:53;25.40;83.00
21518;DHT22;61765;45.794;24.150;2022-10-01T07:36:00;26.00;80.30
21518;DHT22;61765;45.794;24.150;2022-10-01T07:44:08;26.50;78.10
21518;DHT22;61765;45.794;24.150;2022-10-01T07:52:14;26.00;78.70
21518;DHT22;61765;45.794;24.150;2022-10-01T08:00:26;26.60;78.60
21518;DHT22;61765;45.794;24.150;2022-10-01T08:08:32;26.80;77.80
21518;DHT22;61765;45.794;24.150;2022-10-01T08:16:40;27.10;74.70
21518;DHT22;61765;45.794;24.150;2022-10-01T08:24:45;27.20;74.60
21518;DHT22;61765;45.794;24.150;2022-10-01T08:32:56;27.30;73.10
21518;DHT22;61765;45.794;24.150;2022-10-01T08:41:08;27.60;72.90
21518;DHT22;61765;45.794;24.150;2022-10-01T08:49:29;28.10;70.50
21518;DHT22;61765;45.794;24.150;2022-10-01T08:57:40;28.30;69.80
21518;DHT22;61765;45.794;24.150;2022-10-01T09:06:08;29.30;68.60
21518;DHT22;61765;45.794;24.150;2022-10-01T09:22:58;30.90;64.10
21518;DHT22;61765;45.794;24.150;2022-10-01T09:31:13;31.60;61.60
21518;DHT22;61765;45.794;24.150;2022-10-01T09:39:25;31.50;62.70
21518;DHT22;61765;45.794;24.150;2022-10-01T09:47:32;34.50;58.50
21518;DHT22;61765;45.794;24.150;2022-10-01T09:55:43;38.40;50.80
21518;DHT22;61765;45.794;24.150;2022-10-01T10:03:54;40.60;49.10
21518;DHT22;61765;45.794;24.150;2022-10-01T10:12:03;42.80;45.50
21518;DHT22;61765;45.794;24.150;2022-10-01T10:20:22;43.80;43.30
21518;DHT22;61765;45.794;24.150;2022-10-01T10:28:39;39.50;46.10
21518;DHT22;61765;45.794;24.150;2022-10-01T10:36:46;38.20;48.20
21518;DHT22;61765;45.794;24.150;2022-10-01T10:45:00;39.60;47.30
21518;DHT22;61765;45.794;24.150;2022-10-01T10:53:17;39.90;45.80
21518;DHT22;61765;45.794;24.150;2022-10-01T11:01:27;39.20;47.70
21518;DHT22;61765;45.794;24.150;2022-10-01T11:09:45;37.70;46.50
21518;DHT22;61765;45.794;24.150;2022-10-01T11:26:42;35.60;51.50
21518;DHT22;61765;45.794;24.150;2022-10-01T11:35:12;34.90;52.70
21518;DHT22;61765;45.794;24.150;2022-10-01T11:43:26;33.80;54.10
21518;DHT22;61765;45.794;24.150;2022-10-01T11:51:33;32.60;55.90
21518;DHT22;61765;45.794;24.150;2022-10-01T11:59:48;31.80;57.40
21518;DHT22;61765;45.794;24.150;2022-10-01T12:07:56;31.30;58.60
21518;DHT22;61765;45.794;24.150;2022-10-01T12:16:10;30.30;60.50
21518;DHT22;61765;45.794;24.150;2022-10-01T12:24:20;29.70;61.60
21518;DHT22;61765;45.794;24.150;2022-10-01T12:32:35;29.90;61.70
21518;DHT22;61765;45.794;24.150;2022-10-01T12:40:45;29.60;63.50
21518;DHT22;61765;45.794;24.150;2022-10-01T12:49:02;29.90;61.70
21518;DHT22;61765;45.794;24.150;2022-10-01T12:57:20;29.60;62.10
21518;DHT22;61765;45.794;24.150;2022-10-01T13:05:39;29.50;63.40
21518;DHT22;61765;45.794;24.150;2022-10-01T13:13:49;29.50;63.10
21518;DHT22;61765;45.794;24.150;2022-10-01T13:22:07;29.10;63.90
21518;DHT22;61765;45.794;24.150;2022-10-01T13:30:19;29.40;63.60
21518;DHT22;61765;45.794;24.150;2022-10-01T13:38:37;29.00;63.80
21518;DHT22;61765;45.794;24.150;2022-10-01T13:46:50;28.30;65.50
21518;DHT22;61765;45.794;24.150;2022-10-01T13:54:59;27.90;65.80
21518;DHT22;61765;45.794;24.150;2022-10-01T14:03:21;28.20;65.90
21518;DHT22;61765;45.794;24.150;2022-10-01T14:11:35;28.20;66.00
21518;DHT22;61765;45.794;24.150;2022-10-01T14:19:54;27.70;66.90
21518;DHT22;61765;45.794;24.150;2022-10-01T14:28:19;27.90;67.00
21518;DHT22;61765;45.794;24.150;2022-10-01T14:36:31;27.80;67.20
21518;DHT22;61765;45.794;24.150;2022-10-01T14:44:42;28.00;67.00
21518;DHT22;61765;45.794;24.150;2022-10-01T14:52:49;27.60;68.20
21518;DHT22;61765;45.794;24.150;2022-10-01T15:01:05;27.40;68.60
21518;DHT22;61765;45.794;24.150;2022-10-01T15:09:13;27.00;70.10
21518;DHT22;61765;45.794;24.150;2022-10-01T15:17:26;27.00;69.70
21518;DHT22;61765;45.794;24.150;2022-10-01T15:25:31;26.90;70.20
21518;DHT22;61765;45.794;24.150;2022-10-01T15:33:40;26.60;71.00
21518;DHT22;61765;45.794;24.150;2022-10-01T15:41:49;26.40;71.80
21518;DHT22;61765;45.794;24.150;2022-10-01T15:50:16;26.70;71.50
21518;DHT22;61765;45.794;24.150;2022-10-01T15:58:25;26.10;73.80
21518;DHT22;61765;45.794;24.150;2022-10-01T16:06:37;25.60;75.20
21518;DHT22;61765;45.794;24.150;2022-10-01T16:14:55;25.30;76.70
21518;DHT22;61765;45.794;24.150;2022-10-01T16:23:39;25.40;77.60
21518;DHT22;61765;45.794;24.150;2022-10-01T16:31:45;25.20;77.90
21518;DHT22;61765;45.794;24.150;2022-10-01T16:39:53;25.00;78.60
21518;DHT22;61765;45.794;24.150;2022-10-01T16:47:59;24.70;79.60
21518;DHT22;61765;45.794;24.150;2022-10-01T16:56:07;24.30;81.70
21518;DHT22;61765;45.794;24.150;2022-10-01T17:04:13;24.60;80.70
21518;DHT22;61765;45.794;24.150;2022-10-01T17:12:20;24.60;80.70
21518;DHT22;61765;45.794;24.150;2022-10-01T17:20:28;24.10;81.40
21518;DHT22;61765;45.794;24.150;2022-10-01T17:28:37;24.50;81.00
21518;DHT22;61765;45.794;24.150;2022-10-01T17:36:43;24.50;81.00
21518;DHT22;61765;45.794;24.150;2022-10-01T17:44:51;24.20;81.60
21518;DHT22;61765;45.794;24.150;2022-10-01T17:52:56;24.70;80.60
21518;DHT22;61765;45.794;24.150;2022-10-01T18:01:06;25.00;79.30
21518;DHT22;61765;45.794;24.150;2022-10-01T18:09:13;25.30;78.00
21518;DHT22;61765;45.794;24.150;2022-10-01T18:17:21;25.20;77.10
21518;DHT22;61765;45.794;24.150;2022-10-01T18:25:27;25.20;77.70
21518;DHT22;61765;45.794;24.150;2022-10-01T18:33:35;25.50;76.60
21518;DHT22;61765;45.794;24.150;2022-10-01T18:41:41;25.40;76.60
21518;DHT22;61765;45.794;24.150;2022-10-01T19:07:04;23.80;89.00
21518;DHT22;61765;45.794;24.150;2022-10-01T19:15:20;23.40;90.30
21518;DHT22;61765;45.794;24.150;2022-10-01T19:32:10;23.00;90.70
21518;DHT22;61765;45.794;24.150;2022-10-01T19:40:21;22.80;91.20
21518;DHT22;61765;45.794;24.150;2022-10-01T19:48:40;22.70;91.20
21518;DHT22;61765;45.794;24.150;2022-10-01T19:56:52;22.80;90.80
21518;DHT22;61765;45.794;24.150;2022-10-01T20:05:04;22.90;90.50
21518;DHT22;61765;45.794;24.150;2022-10-01T20:13:25;22.60;90.00
21518;DHT22;61765;45.794;24.150;2022-10-01T20:21:45;22.80;89.20
21518;DHT22;61765;45.794;24.150;2022-10-01T20:30:00;22.80;88.30
21518;DHT22;61765;45.794;24.150;2022-10-01T20:38:13;23.00;87.60
21518;DHT22;61765;45.794;24.150;2022-10-01T20:46:25;23.00;87.20
21518;DHT22;61765;45.794;24.150;2022-10-01T20:54:40;23.10;86.60
21518;DHT22;61765;45.794;24.150;2022-10-01T21:02:49;23.30;85.90
21518;DHT22;61765;45.794;24.150;2022-10-01T21:11:03;23.40;85.80
21518;DHT22;61765;45.794;24.150;2022-10-01T21:19:26;23.60;85.10
21518;DHT22;61765;45.794;24.150;2022-10-01T21:27:48;23.60;84.70
21518;DHT22;61765;45.794;24.150;2022-10-01T21:36:04;23.50;84.50
21518;DHT22;61765;45.794;24.150;2022-10-01T21:44:36;23.30;85.10
21518;DHT22;61765;45.794;24.150;2022-10-01T21:52:48;23.20;85.10
21518;DHT22;61765;45.794;24.150;2022-10-01T22:01:07;23.20;85.10
21518;DHT22;61765;45.794;24.150;2022-10-01T22:09:24;23.10;85.40
21518;DHT22;61765;45.794;24.150;2022-10-01T22:17:32;23.10;86.00
21518;DHT22;61765;45.794;24.150;2022-10-01T22:25:44;23.00;86.60
21518;DHT22;61765;45.794;24.150;2022-10-01T22:33:58;22.80;87.10
21518;DHT22;61765;45.794;24.150;2022-10-01T22:42:09;22.90;87.10
21518;DHT22;61765;45.794;24.150;2022-10-01T22:50:39;22.60;87.40
21518;DHT22;61765;45.794;24.150;2022-10-01T22:59:02;22.80;87.60
21518;DHT22;61765;45.794;24.150;2022-10-01T23:07:19;22.70;87.80
21518;DHT22;61765;45.794;24.150;2022-10-01T23:15:35;21.60;89.60
21518;DHT22;61765;45.794;24.150;2022-10-01T23:23:54;22.10;89.50
21518;DHT22;61765;45.794;24.150;2022-10-01T23:32:09;22.30;88.60
21518;DHT22;61765;45.794;24.150;2022-10-01T23:40:27;22.40;88.20
21518;DHT22;61765;45.794;24.150;2022-10-01T23:48:38;22.40;87.80
21518;DHT22;61765;45.794;24.150;2022-10-01T23:56:52;22.40;87.70
